Port Coquitlam, Canada
Current Conditions -  °F | °C
As of 10:00 PM on Tuesday 21 Oct 2014 (Local Time) from CYVR Reporting Station
Rain Showers Rain Showers  
Wind Chill: 57°   Ceiling: 8000
Heat Index: 57°   Visibility: 10mi
Dew Point: 50°   Wind: 17mph
Humidity: 77%   Direction: 110°ESE
Pressure: 29.67"   Gusts: 31mph
Location:  49.26°N, 122.78°W
Report Text: CYVR 220500Z 11015G27KT 10SM -SHRA FEW030 SCT040 OVC080 14/10 A2967 RMK SC1SC2AC5 CVCTV CLD EMBD SLP047 DENSITY ALT 100FT
Loading
Personal Weather Stations






























Interactive Weather Map
Tropical Storm Tracking
New forecast layout! Learn more

10-Day Weather Forecast

Advertisements
Track Severe Weather on mobile